Time;durP1;ratioP1;P1;durP2;ratioP2;P2;SDS_P1;SDS_P2;PMS_P1;PMS_P2;Temp;Humidity;BMP_temperature;BMP_pressure;BME280_temperature;BME280_humidity;BME280_pressure;Samples;Min_cycle;Max_cycle;Signal;HPM_P1;HPM_P2
2022/12/20 00:01:27;;;;;;;4.15;3.15;;;6.60;99.90;;;;;;4975772;28;20184;-70
2022/12/20 00:04:02;;;;;;;4.37;3.60;;;6.60;99.90;;;;;;4976467;28;20171;-70
2022/12/20 00:06:28;;;;;;;5.23;3.37;;;6.60;99.90;;;;;;4959942;28;20415;-70
2022/12/20 00:09:00;;;;;;;4.00;3.60;;;6.60;99.90;;;;;;4993191;28;20403;-70
2022/12/20 00:11:29;;;;;;;3.95;3.55;;;6.70;99.90;;;;;;4993043;28;20407;-70
2022/12/20 00:13:58;;;;;;;4.68;3.30;;;6.70;99.90;;;;;;4979855;28;20206;-71
2022/12/20 00:16:27;;;;;;;3.50;3.10;;;6.70;99.90;;;;;;4963383;28;20184;-71
2022/12/20 00:19:01;;;;;;;3.90;3.03;;;6.70;99.90;;;;;;4996604;28;20394;-71
2022/12/20 00:21:29;;;;;;;3.65;2.90;;;6.70;99.90;;;;;;4963138;28;20207;-71
2022/12/20 00:24:00;;;;;;;4.07;3.33;;;6.70;99.90;;;;;;4979626;28;20180;-70
2022/12/20 00:26:31;;;;;;;3.43;3.13;;;6.70;99.90;;;;;;4979172;28;20195;-70
2022/12/20 00:28:59;;;;;;;4.78;3.40;;;6.70;99.90;;;;;;4979119;28;20839;-70
2022/12/20 00:31:27;;;;;;;5.35;3.22;;;6.70;99.90;;;;;;4979163;28;20226;-70
2022/12/20 00:33:54;;;;;;;4.72;3.25;;;6.70;99.90;;;;;;4979109;28;20160;-71
2022/12/20 00:36:24;;;;;;;4.00;3.13;;;6.70;99.90;;;;;;4978870;28;20205;-71
2022/12/20 00:38:55;;;;;;;5.80;3.45;;;6.70;99.90;;;;;;4979055;28;20197;-71
2022/12/20 00:41:27;;;;;;;4.90;3.13;;;6.70;99.90;;;;;;4962730;28;20168;-71
2022/12/20 00:43:53;;;;;;;4.15;3.20;;;6.70;99.90;;;;;;4946853;28;20801;-71
2022/12/20 00:46:23;;;;;;;4.57;2.90;;;6.80;99.90;;;;;;4962842;28;20266;-71
2022/12/20 00:48:52;;;;;;;3.42;2.63;;;6.80;99.90;;;;;;4979104;28;20175;-71
2022/12/20 00:51:24;;;;;;;4.32;3.08;;;6.80;99.90;;;;;;4946857;28;20773;-70
2022/12/20 00:53:51;;;;;;;4.15;2.85;;;6.80;99.90;;;;;;4962629;28;20193;-70
2022/12/20 00:56:18;;;;;;;3.10;2.45;;;6.80;99.90;;;;;;4946553;28;20573;-70
2022/12/20 00:58:52;;;;;;;3.35;2.50;;;6.80;99.90;;;;;;4978607;28;20207;-70
2022/12/20 01:01:27;;;;;;;3.60;3.20;;;6.80;99.90;;;;;;4978472;28;20183;-70
2022/12/20 01:03:53;;;;;;;3.17;2.78;;;6.80;99.90;;;;;;4978511;28;20207;-70
2022/12/20 01:06:28;;;;;;;4.90;3.38;;;6.80;99.90;;;;;;4978574;28;20348;-70
2022/12/20 01:08:57;;;;;;;4.50;3.43;;;6.80;99.90;;;;;;4978327;28;20235;-70
2022/12/20 01:11:31;;;;;;;4.53;3.27;;;6.80;99.90;;;;;;4946339;28;20829;-70
2022/12/20 01:14:01;;;;;;;4.57;3.15;;;6.80;99.90;;;;;;4978214;28;20466;-70
2022/12/20 01:16:32;;;;;;;3.37;3.07;;;6.80;99.90;;;;;;4978321;28;20511;-70
2022/12/20 01:19:07;;;;;;;4.10;3.60;;;6.90;99.90;;;;;;4961835;28;20512;-71
2022/12/20 01:21:33;;;;;;;4.55;3.20;;;6.90;99.90;;;;;;4978193;28;20415;-71
2022/12/20 01:23:59;;;;;;;4.07;2.92;;;6.90;99.90;;;;;;4961092;28;20172;-71
2022/12/20 01:26:29;;;;;;;3.47;2.90;;;6.90;99.90;;;;;;4977946;28;20168;-71
2022/12/20 01:29:00;;;;;;;3.42;3.10;;;6.90;99.90;;;;;;4977862;28;21000;-70
2022/12/20 01:31:27;;;;;;;3.95;3.15;;;6.90;99.90;;;;;;4977884;28;20307;-70
2022/12/20 01:33:53;;;;;;;3.25;2.55;;;6.90;99.90;;;;;;4995190;28;20525;-70
2022/12/20 01:36:25;;;;;;;4.82;3.08;;;7.00;99.90;;;;;;4977949;28;20186;-70
2022/12/20 01:38:59;;;;;;;4.80;3.37;;;7.00;99.90;;;;;;4962516;28;20206;-70
2022/12/20 01:41:26;;;;;;;3.60;2.95;;;7.00;99.90;;;;;;4977780;28;20511;-70
2022/12/20 01:43:59;;;;;;;3.40;2.73;;;7.00;99.90;;;;;;4977783;28;20251;-71
2022/12/20 01:46:32;;;;;;;3.13;2.80;;;7.00;99.90;;;;;;4961756;28;20429;-70
2022/12/20 01:49:15;;;;;;;3.70;3.23;;;7.00;99.90;;;;;;4977462;28;20207;-70
2022/12/20 01:51:51;;;;;;;3.37;2.93;;;7.00;99.90;;;;;;4961441;28;20439;-70
2022/12/20 01:54:32;;;;;;;3.27;2.90;;;7.00;99.90;;;;;;4977683;28;20407;-70
2022/12/20 01:57:08;;;;;;;5.50;3.37;;;7.00;99.90;;;;;;4945458;28;20595;-71
2022/12/20 01:59:38;;;;;;;6.03;3.30;;;7.00;99.90;;;;;;4961499;28;20419;-71
2022/12/20 02:02:07;;;;;;;4.70;2.80;;;7.00;99.90;;;;;;4977101;28;20460;-71
2022/12/20 02:04:33;;;;;;;5.43;3.23;;;7.00;99.90;;;;;;4961470;28;20783;-71
2022/12/20 02:07:02;;;;;;;3.10;2.47;;;7.00;99.90;;;;;;4977465;28;20459;-71
2022/12/20 02:09:29;;;;;;;4.20;3.03;;;7.10;99.90;;;;;;4977131;28;20462;-70
2022/12/20 02:12:13;;;;;;;4.50;3.17;;;7.00;99.90;;;;;;4945215;28;20527;-70
2022/12/20 02:15:02;;;;;;;3.77;2.90;;;7.10;99.90;;;;;;4961200;28;20435;-70
2022/12/20 02:18:04;;;;;;;3.80;3.20;;;7.10;99.90;;;;;;4977086;28;20531;-71
2022/12/20 02:20:33;;;;;;;4.03;3.65;;;7.10;99.90;;;;;;4902999;29;20189;-71
2022/12/20 02:23:34;;;;;;;5.05;3.40;;;7.10;99.90;;;;;;4953723;28;20223;-71
2022/12/20 02:26:35;;;;;;;4.80;3.20;;;7.10;99.90;;;;;;4960856;28;20205;-71
2022/12/20 02:29:19;;;;;;;4.40;3.40;;;7.10;99.90;;;;;;4930384;28;20441;-70
2022/12/20 02:31:54;;;;;;;3.83;3.00;;;7.10;99.90;;;;;;4960941;28;20485;-70
2022/12/20 02:34:23;;;;;;;4.70;3.50;;;7.10;99.90;;;;;;4960652;28;20426;-70
2022/12/20 02:36:50;;;;;;;3.20;2.87;;;7.10;99.90;;;;;;4960749;28;20487;-70
2022/12/20 02:39:16;;;;;;;4.50;3.30;;;7.10;99.90;;;;;;4994035;28;20412;-70
2022/12/20 02:41:51;;;;;;;4.27;3.30;;;7.10;99.90;;;;;;4993935;28;20437;-71
2022/12/20 02:47:20;;;;;;;3.13;2.80;;;7.10;99.90;;;;;;4961079;28;20427;-70
2022/12/20 02:49:49;;;;;;;4.50;3.60;;;7.20;99.90;;;;;;4976431;28;20448;-71
2022/12/20 02:52:21;;;;;;;4.60;2.97;;;7.10;99.90;;;;;;4993821;28;20505;-71
2022/12/20 02:54:47;;;;;;;3.70;3.10;;;7.10;99.90;;;;;;4976591;28;20494;-71
2022/12/20 02:57:39;;;;;;;3.33;2.60;;;7.20;99.90;;;;;;4960586;28;20431;-70
2022/12/20 03:00:12;;;;;;;3.10;2.40;;;7.20;99.90;;;;;;4960357;28;20431;-70
2022/12/20 03:05:27;;;;;;;8.13;4.83;;;7.20;99.90;;;;;;4976474;28;20486;-70
2022/12/20 03:07:53;;;;;;;4.73;3.70;;;7.20;99.90;;;;;;4976379;28;20410;-70
2022/12/20 03:10:23;;;;;;;3.30;3.00;;;7.20;99.90;;;;;;4976372;28;20801;-70
2022/12/20 03:12:49;;;;;;;5.55;3.50;;;7.20;99.90;;;;;;4976402;28;20458;-70
2022/12/20 03:15:17;;;;;;;3.20;2.90;;;7.20;99.90;;;;;;4993753;28;20164;-70
2022/12/20 03:17:45;;;;;;;4.90;3.07;;;7.20;99.90;;;;;;4976443;28;20530;-70
2022/12/20 03:20:12;;;;;;;5.27;3.80;;;7.30;99.90;;;;;;4976289;28;20406;-70
2022/12/20 03:22:42;;;;;;;6.90;4.00;;;7.30;99.90;;;;;;4976054;28;20439;-70
2022/12/20 03:25:11;;;;;;;5.03;3.43;;;7.30;99.90;;;;;;4960380;28;20475;-70
2022/12/20 03:27:41;;;;;;;6.47;3.60;;;7.30;99.90;;;;;;4960133;28;20399;-70
2022/12/20 03:30:11;;;;;;;4.40;3.50;;;7.30;99.90;;;;;;4976105;28;20459;-70
2022/12/20 03:32:38;;;;;;;5.80;3.27;;;7.30;99.90;;;;;;4976136;28;20466;-71
2022/12/20 03:35:05;;;;;;;4.03;3.63;;;7.30;99.90;;;;;;4975991;28;20444;-72
2022/12/20 03:37:35;;;;;;;5.10;3.65;;;7.30;99.90;;;;;;4959818;28;20406;-71
2022/12/20 03:40:04;;;;;;;5.00;4.03;;;7.30;99.90;;;;;;4975943;28;20195;-71
2022/12/20 03:42:31;;;;;;;7.43;3.90;;;7.30;99.90;;;;;;4975768;28;20442;-71
2022/12/20 03:44:59;;;;;;;4.23;3.57;;;7.30;99.90;;;;;;4975981;28;20538;-71
2022/12/20 03:47:29;;;;;;;4.67;3.40;;;7.30;99.90;;;;;;4977626;28;20556;-72
2022/12/20 03:49:56;;;;;;;4.93;3.90;;;7.30;99.90;;;;;;4979615;28;20466;-71
2022/12/20 03:52:22;;;;;;;4.17;3.60;;;7.30;99.90;;;;;;4963486;28;20436;-71
2022/12/20 03:54:51;;;;;;;5.80;3.73;;;7.30;99.90;;;;;;4979583;28;20400;-71
2022/12/20 03:57:20;;;;;;;5.38;3.65;;;7.30;99.90;;;;;;4977677;23;20562;-76
2022/12/20 03:59:50;;;;;;;4.50;3.77;;;7.30;99.90;;;;;;4992599;28;20207;-76
2022/12/20 04:02:21;;;;;;;6.00;4.20;;;7.30;99.90;;;;;;5005026;28;20529;-76
2022/12/20 04:04:51;;;;;;;5.43;4.00;;;7.30;99.90;;;;;;4988659;28;20412;-76
2022/12/20 04:07:20;;;;;;;5.20;4.20;;;7.30;99.90;;;;;;4969691;28;20419;-76
2022/12/20 04:09:46;;;;;;;5.67;3.37;;;7.30;99.90;;;;;;4979519;28;20217;-76
2022/12/20 04:12:14;;;;;;;4.77;4.27;;;7.30;99.90;;;;;;4961785;28;20450;-75
2022/12/20 04:14:40;;;;;;;4.37;3.77;;;7.40;99.90;;;;;;4980377;28;20429;-76
2022/12/20 04:17:08;;;;;;;6.23;4.47;;;7.40;99.90;;;;;;4981071;28;20419;-76
2022/12/20 04:19:39;;;;;;;5.00;4.30;;;7.40;99.90;;;;;;4996660;28;20771;-76
2022/12/20 04:22:06;;;;;;;4.97;3.93;;;7.40;99.90;;;;;;4979957;28;20508;-76
2022/12/20 04:24:47;;;;;;;4.50;4.00;;;7.40;99.90;;;;;;4996128;28;20934;-75
2022/12/20 04:27:21;;;;;;;4.73;4.03;;;7.40;99.90;;;;;;5013466;28;20522;-75
2022/12/20 04:29:50;;;;;;;7.37;4.87;;;7.40;99.90;;;;;;4980224;28;20462;-76
2022/12/20 04:32:19;;;;;;;4.93;4.43;;;7.40;99.90;;;;;;4981034;28;20461;-75
2022/12/20 04:34:48;;;;;;;5.40;4.33;;;7.40;99.90;;;;;;4979630;28;20439;-76
2022/12/20 04:37:15;;;;;;;5.20;4.20;;;7.40;99.90;;;;;;4980869;28;20431;-75
2022/12/20 04:39:47;;;;;;;6.43;4.93;;;7.40;99.90;;;;;;5011243;28;20435;-76
2022/12/20 04:42:27;;;;;;;5.10;4.60;;;7.40;99.90;;;;;;4995628;28;20550;-75
2022/12/20 04:44:54;;;;;;;6.03;5.43;;;7.40;99.90;;;;;;4996290;28;20938;-75
2022/12/20 04:47:29;;;;;;;6.50;5.27;;;7.40;99.90;;;;;;4980218;28;20931;-75
2022/12/20 04:49:55;;;;;;;7.13;5.07;;;7.50;99.90;;;;;;4996017;28;20451;-75
2022/12/20 04:55:05;;;;;;;7.53;5.70;;;7.50;99.90;;;;;;4979328;28;20812;-76
2022/12/20 04:57:35;;;;;;;7.60;5.23;;;7.50;99.90;;;;;;4980020;28;20447;-75
2022/12/20 05:00:04;;;;;;;6.70;5.70;;;7.50;99.90;;;;;;4979487;28;20793;-75
2022/12/20 05:02:30;;;;;;;8.50;5.30;;;7.50;99.90;;;;;;4979886;28;21038;-74
2022/12/20 05:05:02;;;;;;;8.23;5.97;;;7.50;99.90;;;;;;4995873;28;20426;-76
2022/12/20 05:07:35;;;;;;;6.57;5.60;;;7.50;99.90;;;;;;4965103;28;20826;-74
2022/12/20 05:10:06;;;;;;;8.17;7.07;;;7.50;99.90;;;;;;4958303;28;20460;-74
2022/12/20 05:12:33;;;;;;;7.33;5.60;;;7.50;99.90;;;;;;4954013;28;20521;-76
2022/12/20 05:15:01;;;;;;;8.43;5.60;;;7.50;99.90;;;;;;4995944;28;20430;-75
2022/12/20 05:17:30;;;;;;;6.50;5.23;;;7.50;99.90;;;;;;4995923;28;20416;-75
2022/12/20 05:19:57;;;;;;;6.85;5.40;;;7.50;99.90;;;;;;4995755;28;20903;-75
2022/12/20 05:28:09;;;;;;;5.17;4.67;;;7.50;99.90;;;;;;4975722;28;20990;-74
2022/12/20 05:30:36;;;;;;;7.20;5.50;;;7.50;99.90;;;;;;4961544;28;20505;-74
2022/12/20 05:33:04;;;;;;;6.07;5.00;;;7.50;99.90;;;;;;4973820;28;20593;-74
2022/12/20 05:35:31;;;;;;;5.25;4.80;;;7.50;99.90;;;;;;5012954;28;20514;-74
2022/12/20 05:38:03;;;;;;;5.80;4.68;;;7.50;99.90;;;;;;4979961;28;20174;-72
2022/12/20 05:40:32;;;;;;;7.07;5.43;;;7.50;99.90;;;;;;4988985;28;20353;-72
2022/12/20 05:42:59;;;;;;;5.23;4.30;;;7.60;99.90;;;;;;4985273;28;20967;-71
2022/12/20 05:45:34;;;;;;;4.93;4.40;;;7.50;99.90;;;;;;4995811;28;20434;-75
2022/12/20 05:48:04;;;;;;;6.80;5.30;;;7.60;99.90;;;;;;4995038;28;20526;-74
2022/12/20 05:50:32;;;;;;;5.90;4.53;;;7.60;99.90;;;;;;4979353;28;20473;-75
2022/12/20 05:53:21;;;;;;;4.50;4.10;;;7.60;99.90;;;;;;4952446;28;21043;-75
2022/12/20 05:55:54;;;;;;;5.20;4.40;;;7.60;99.90;;;;;;4976317;28;20426;-75
2022/12/20 05:58:25;;;;;;;8.17;4.63;;;7.60;99.90;;;;;;4967995;28;20457;-75
2022/12/20 06:00:56;;;;;;;5.53;4.53;;;7.60;99.90;;;;;;4961210;28;20465;-76
2022/12/20 06:03:24;;;;;;;5.97;4.60;;;7.60;99.90;;;;;;4979304;28;20836;-76
2022/12/20 06:05:53;;;;;;;5.87;4.40;;;7.60;99.90;;;;;;4995500;28;20465;-76
2022/12/20 06:08:25;;;;;;;5.83;5.20;;;7.60;99.90;;;;;;4964353;28;21069;-75
2022/12/20 06:10:54;;;;;;;6.32;4.90;;;7.60;99.90;;;;;;4978162;28;20464;-75
2022/12/20 06:13:23;;;;;;;6.10;5.20;;;7.60;99.90;;;;;;4963561;28;20206;-76
2022/12/20 06:15:52;;;;;;;5.43;4.60;;;7.60;99.90;;;;;;4995721;28;20744;-76
2022/12/20 06:18:21;;;;;;;6.83;4.80;;;7.60;99.90;;;;;;4979217;28;20862;-76
2022/12/20 06:20:53;;;;;;;5.63;5.10;;;7.70;99.90;;;;;;4979234;28;20426;-76
2022/12/20 06:23:23;;;;;;;5.13;4.40;;;7.70;99.90;;;;;;4994502;28;20454;-75
2022/12/20 06:26:07;;;;;;;6.00;4.87;;;7.70;99.90;;;;;;4995178;28;20434;-75
2022/12/20 06:28:41;;;;;;;6.27;4.80;;;7.70;99.90;;;;;;4977734;28;20431;-75
2022/12/20 06:31:10;;;;;;;5.63;4.83;;;7.70;99.90;;;;;;4994791;28;20468;-73
2022/12/20 06:33:45;;;;;;;7.03;4.67;;;7.70;99.90;;;;;;4978718;28;20449;-75
2022/12/20 06:36:21;;;;;;;9.17;5.07;;;7.70;99.90;;;;;;4995379;28;20458;-75
2022/12/20 06:38:47;;;;;;;5.40;4.90;;;7.70;99.90;;;;;;4975879;28;20427;-74
2022/12/20 06:41:15;;;;;;;6.43;4.50;;;7.70;99.90;;;;;;4983351;28;20427;-75
2022/12/20 06:43:41;;;;;;;5.70;4.30;;;7.70;99.90;;;;;;4993963;28;20472;-76
2022/12/20 06:46:09;;;;;;;5.40;4.47;;;7.70;99.90;;;;;;4963285;28;20451;-76
2022/12/20 06:48:36;;;;;;;4.73;4.20;;;7.70;99.90;;;;;;4994843;28;20443;-75
2022/12/20 06:51:04;;;;;;;6.23;4.47;;;7.70;99.90;;;;;;4977915;28;20567;-75
2022/12/20 06:53:32;;;;;;;5.10;4.10;;;7.70;99.90;;;;;;4978612;28;20449;-75
2022/12/20 06:55:58;;;;;;;6.50;5.00;;;7.70;99.90;;;;;;4994433;28;20893;-75
2022/12/20 06:58:24;;;;;;;5.30;4.20;;;7.70;99.90;;;;;;4986033;28;20439;-76
2022/12/20 07:00:53;;;;;;;5.00;4.43;;;7.70;99.90;;;;;;4986146;28;20463;-76
2022/12/20 07:03:19;;;;;;;6.10;4.27;;;7.80;99.90;;;;;;4978349;28;20510;-76
2022/12/20 07:05:54;;;;;;;6.00;4.57;;;7.80;99.90;;;;;;4978242;28;20407;-76
2022/12/20 07:08:21;;;;;;;4.20;3.80;;;7.80;99.90;;;;;;5011923;28;20446;-76
2022/12/20 07:10:51;;;;;;;6.23;5.00;;;7.80;99.90;;;;;;4993806;28;20472;-77
2022/12/20 07:13:20;;;;;;;5.13;4.63;;;7.80;99.90;;;;;;4977762;28;20940;-76
2022/12/20 07:15:46;;;;;;;5.03;4.53;;;7.80;99.90;;;;;;5011733;28;20410;-74
2022/12/20 07:18:14;;;;;;;5.33;4.67;;;7.80;99.90;;;;;;4976566;28;20423;-75
2022/12/20 07:20:45;;;;;;;5.03;3.93;;;7.80;99.90;;;;;;4983959;28;20454;-75
2022/12/20 07:23:11;;;;;;;6.60;4.23;;;7.80;99.90;;;;;;4997690;28;20463;-76
2022/12/20 07:25:41;;;;;;;8.70;4.63;;;7.80;99.90;;;;;;4998092;28;20421;-75
2022/12/20 07:28:09;;;;;;;4.53;3.80;;;7.90;99.90;;;;;;4981570;28;20972;-76
2022/12/20 07:30:36;;;;;;;5.33;3.80;;;7.80;99.90;;;;;;4982543;28;20470;-75
2022/12/20 07:33:04;;;;;;;4.87;3.93;;;7.80;99.90;;;;;;5002275;28;20526;-76
2022/12/20 07:35:32;;;;;;;8.10;4.17;;;7.80;99.90;;;;;;4997919;28;20759;-76
2022/12/20 07:37:58;;;;;;;5.80;3.97;;;7.90;99.90;;;;;;4997900;28;20437;-76
2022/12/20 07:40:40;;;;;;;5.50;3.97;;;7.90;99.90;;;;;;4999505;28;20430;-76
2022/12/20 07:43:09;;;;;;;4.77;4.10;;;7.90;99.90;;;;;;4977920;28;20600;-75
2022/12/20 07:45:40;;;;;;;5.37;4.00;;;7.90;99.90;;;;;;4981358;28;20489;-75
2022/12/20 07:48:07;;;;;;;5.53;4.13;;;7.90;99.90;;;;;;5014319;28;20442;-75
2022/12/20 07:50:39;;;;;;;6.20;4.40;;;7.90;99.90;;;;;;4997622;28;20461;-75
2022/12/20 07:53:06;;;;;;;4.30;3.80;;;7.90;99.90;;;;;;4997729;28;20454;-76
2022/12/20 07:55:33;;;;;;;4.57;4.03;;;7.90;99.90;;;;;;4962986;28;20452;-75
2022/12/20 07:58:04;;;;;;;7.73;3.83;;;7.90;99.90;;;;;;4997757;28;20676;-76
2022/12/20 08:00:31;;;;;;;3.83;3.20;;;7.90;99.90;;;;;;4979593;28;20447;-75
2022/12/20 08:03:22;;;;;;;6.10;4.50;;;7.90;99.90;;;;;;4965063;28;20491;-76
2022/12/20 08:05:54;;;;;;;4.70;4.30;;;7.90;99.90;;;;;;4997281;28;20502;-76
2022/12/20 08:08:25;;;;;;;4.70;3.80;;;7.90;99.90;;;;;;4964966;28;20441;-76
2022/12/20 08:11:04;;;;;;;4.50;3.73;;;8.00;99.90;;;;;;4998249;28;20475;-76
2022/12/20 08:13:33;;;;;;;5.30;4.10;;;8.00;99.90;;;;;;4996949;28;20432;-77
2022/12/20 08:16:02;;;;;;;5.00;3.60;;;7.90;99.90;;;;;;4997188;28;20843;-75
2022/12/20 08:18:30;;;;;;;4.30;3.37;;;7.90;99.90;;;;;;4997292;28;20438;-76
2022/12/20 08:20:56;;;;;;;5.80;3.70;;;8.00;99.90;;;;;;4981004;28;20438;-76
2022/12/20 08:23:22;;;;;;;4.33;3.93;;;8.00;99.90;;;;;;4980851;28;20443;-76
2022/12/20 08:25:51;;;;;;;4.77;3.87;;;8.00;99.90;;;;;;4986804;28;20542;-76
2022/12/20 08:28:19;;;;;;;5.60;3.67;;;8.00;99.90;;;;;;5013211;28;20518;-77
2022/12/20 08:30:45;;;;;;;5.37;4.27;;;8.00;99.90;;;;;;4980228;28;21017;-76
2022/12/20 08:33:11;;;;;;;5.60;4.10;;;8.00;99.90;;;;;;4980030;28;20458;-75
2022/12/20 08:35:37;;;;;;;4.63;4.07;;;8.00;99.90;;;;;;5014420;28;20431;-75
2022/12/20 08:38:06;;;;;;;5.57;4.03;;;8.00;99.90;;;;;;4976389;28;20429;-75
2022/12/20 08:40:32;;;;;;;5.97;4.20;;;8.00;99.90;;;;;;4977521;28;20437;-75
2022/12/20 08:43:00;;;;;;;5.30;3.90;;;8.00;99.90;;;;;;4961219;28;20475;-75
2022/12/20 08:45:30;;;;;;;4.13;3.60;;;8.00;99.90;;;;;;4994877;28;20899;-75
2022/12/20 08:47:58;;;;;;;4.40;3.70;;;8.00;99.90;;;;;;4985946;28;20508;-75
2022/12/20 08:50:28;;;;;;;6.17;3.80;;;8.10;99.90;;;;;;5013929;28;20443;-75
2022/12/20 08:52:54;;;;;;;4.40;3.70;;;8.10;99.90;;;;;;4980586;28;20582;-75
2022/12/20 08:55:20;;;;;;;4.93;3.97;;;8.10;99.90;;;;;;4980554;28;20833;-75
2022/12/20 08:57:46;;;;;;;3.57;3.27;;;8.10;99.90;;;;;;4989823;28;20600;-76
2022/12/20 09:00:15;;;;;;;3.87;3.47;;;8.10;99.90;;;;;;4976330;28;20601;-75
2022/12/20 09:02:41;;;;;;;5.13;3.70;;;8.10;99.90;;;;;;4973119;28;20469;-76
2022/12/20 09:05:08;;;;;;;4.27;3.87;;;8.10;99.90;;;;;;5014299;28;20769;-77
2022/12/20 09:07:37;;;;;;;5.20;3.60;;;8.10;99.90;;;;;;5014202;28;20451;-75
2022/12/20 09:10:03;;;;;;;5.40;3.57;;;8.10;99.90;;;;;;4996940;28;20992;-75
2022/12/20 09:12:36;;;;;;;4.30;3.60;;;8.10;99.90;;;;;;5014031;28;20450;-77
2022/12/20 09:15:04;;;;;;;4.60;4.20;;;8.10;99.90;;;;;;4993590;28;20472;-76
2022/12/20 09:17:30;;;;;;;4.17;3.60;;;8.10;99.90;;;;;;4979964;28;20429;-77
2022/12/20 09:19:56;;;;;;;4.73;3.47;;;8.10;99.90;;;;;;4995786;28;20463;-77
2022/12/20 09:22:22;;;;;;;5.37;3.60;;;8.10;99.90;;;;;;4979084;28;20485;-77
2022/12/20 09:24:48;;;;;;;6.13;3.90;;;8.20;99.90;;;;;;4996286;28;20473;-77
2022/12/20 09:27:19;;;;;;;4.90;4.00;;;8.20;99.90;;;;;;4975555;28;20475;-77
2022/12/20 09:29:47;;;;;;;4.07;3.45;;;8.10;99.90;;;;;;4993281;28;20455;-76
2022/12/20 09:32:13;;;;;;;4.40;3.70;;;8.10;99.90;;;;;;4995483;28;20251;-76
2022/12/20 09:34:39;;;;;;;7.00;3.70;;;8.10;99.90;;;;;;4960046;28;20471;-77
2022/12/20 09:37:05;;;;;;;5.13;4.10;;;8.20;99.90;;;;;;4954961;28;20429;-77
2022/12/20 09:39:31;;;;;;;6.87;4.37;;;8.20;99.90;;;;;;5012356;28;20442;-77
2022/12/20 09:41:58;;;;;;;5.03;3.90;;;8.20;99.90;;;;;;4985978;28;20466;-77
2022/12/20 09:44:32;;;;;;;4.23;3.60;;;8.20;99.90;;;;;;4969922;28;20441;-77
2022/12/20 09:47:09;;;;;;;4.27;3.73;;;8.20;99.90;;;;;;4980129;28;20454;-77
2022/12/20 09:49:38;;;;;;;4.57;3.80;;;8.20;99.90;;;;;;5011703;28;20455;-77
2022/12/20 09:52:25;;;;;;;5.07;4.10;;;8.20;99.90;;;;;;4963206;28;20440;-76
2022/12/20 09:55:22;;;;;;;4.73;3.97;;;8.20;99.90;;;;;;5013544;28;20897;-77
2022/12/20 09:58:17;;;;;;;4.13;3.53;;;8.20;99.90;;;;;;4975903;28;20463;-77
2022/12/20 10:00:47;;;;;;;3.97;3.60;;;8.20;99.90;;;;;;4960587;28;20447;-76
2022/12/20 10:03:34;;;;;;;5.87;4.17;;;8.20;99.90;;;;;;4977367;28;20445;-75
2022/12/20 10:06:33;;;;;;;3.80;3.23;;;8.20;99.90;;;;;;5110979;27;20533;-75
2022/12/20 10:09:24;;;;;;;5.83;3.60;;;8.20;99.90;;;;;;5126831;27;20397;-75
2022/12/20 10:11:59;;;;;;;8.40;3.77;;;8.20;99.90;;;;;;5078644;28;20446;-75
2022/12/20 10:14:40;;;;;;;4.07;3.67;;;8.20;99.90;;;;;;5092336;28;20811;-75
2022/12/20 10:17:09;;;;;;;5.47;3.50;;;8.20;99.90;;;;;;5109868;28;20450;-75
2022/12/20 10:20:02;;;;;;;4.50;3.83;;;8.20;99.90;;;;;;5092748;28;20399;-75
2022/12/20 10:23:08;;;;;;;5.30;3.83;;;8.20;99.90;;;;;;5075542;28;20541;-75
2022/12/20 10:25:34;;;;;;;4.67;3.67;;;8.20;99.90;;;;;;5092418;28;20558;-74
2022/12/20 10:28:04;;;;;;;6.13;4.23;;;8.20;99.90;;;;;;5092830;28;20919;-75
2022/12/20 10:30:34;;;;;;;4.23;3.50;;;8.20;99.90;;;;;;5109541;28;20484;-74
2022/12/20 10:33:22;;;;;;;4.30;3.40;;;8.20;99.90;;;;;;5109460;28;20437;-75
2022/12/20 10:35:49;;;;;;;6.63;4.10;;;8.30;99.90;;;;;;5109581;28;20411;-75
2022/12/20 10:38:19;;;;;;;4.97;3.80;;;8.30;99.90;;;;;;5092920;28;20440;-75
2022/12/20 10:40:59;;;;;;;5.33;4.27;;;8.30;99.90;;;;;;5109320;28;20395;-74
2022/12/20 10:43:27;;;;;;;4.57;4.00;;;8.30;99.90;;;;;;5075408;28;20492;-74
2022/12/20 10:46:09;;;;;;;4.73;3.73;;;8.30;99.90;;;;;;5109080;28;20802;-74
2022/12/20 10:48:43;;;;;;;5.40;4.00;;;8.30;99.90;;;;;;5092380;28;20420;-75
2022/12/20 10:51:11;;;;;;;4.30;3.90;;;8.30;99.90;;;;;;5110201;28;20399;-74
2022/12/20 10:54:00;;;;;;;4.67;3.73;;;8.30;99.90;;;;;;5075248;28;20446;-75
2022/12/20 10:56:37;;;;;;;6.00;3.97;;;8.30;99.90;;;;;;5092406;28;20921;-74
2022/12/20 10:59:15;;;;;;;7.00;4.50;;;8.30;99.90;;;;;;5109029;28;20422;-74
2022/12/20 11:01:44;;;;;;;4.17;3.50;;;8.30;99.90;;;;;;5107770;28;20398;-75
2022/12/20 11:04:34;;;;;;;4.63;4.17;;;8.40;99.90;;;;;;5090644;28;20990;-73
2022/12/20 11:07:02;;;;;;;4.50;3.27;;;8.40;99.90;;;;;;5109692;28;20832;-74
2022/12/20 11:09:37;;;;;;;5.47;3.50;;;8.40;99.90;;;;;;5108172;28;20840;-73
2022/12/20 11:12:15;;;;;;;5.03;3.90;;;8.40;99.90;;;;;;5090897;28;20999;-72
2022/12/20 11:14:45;;;;;;;4.00;3.60;;;8.40;99.90;;;;;;5108084;28;20452;-73
2022/12/20 11:17:17;;;;;;;5.03;3.83;;;8.40;99.90;;;;;;5079854;28;20945;-73
2022/12/20 11:20:25;;;;;;;5.73;3.40;;;8.40;99.90;;;;;;5077564;28;20510;-73
2022/12/20 11:23:17;;;;;;;4.20;3.63;;;8.40;99.90;;;;;;5077558;28;20466;-72
2022/12/20 11:25:57;;;;;;;4.03;3.57;;;8.40;99.90;;;;;;5095417;28;20460;-72
2022/12/20 11:28:34;;;;;;;4.60;3.57;;;8.40;99.90;;;;;;5056187;28;20436;-73
2022/12/20 11:31:12;;;;;;;5.00;3.40;;;8.40;99.90;;;;;;5073742;28;20396;-73
2022/12/20 11:34:12;;;;;;;4.90;3.53;;;8.40;99.90;;;;;;5058420;28;20436;-73
2022/12/20 11:37:06;;;;;;;4.10;3.00;;;8.40;99.90;;;;;;5095364;28;20505;-73
2022/12/20 11:40:16;;;;;;;4.53;3.50;;;8.50;99.90;;;;;;5094062;28;20392;-72
2022/12/20 11:42:50;;;;;;;4.50;3.77;;;8.50;99.90;;;;;;5051095;28;21128;-72
2022/12/20 11:45:35;;;;;;;5.20;3.50;;;8.40;99.90;;;;;;5080715;28;20992;-72
2022/12/20 11:48:12;;;;;;;5.40;3.77;;;8.50;99.90;;;;;;5093352;28;20460;-72
2022/12/20 11:51:09;;;;;;;5.77;4.10;;;8.50;99.90;;;;;;5093326;28;20445;-72
2022/12/20 11:53:44;;;;;;;4.57;3.83;;;8.50;99.90;;;;;;5112772;28;20434;-72
2022/12/20 11:56:21;;;;;;;4.07;3.60;;;8.50;99.90;;;;;;5095483;28;20411;-72
2022/12/20 11:58:54;;;;;;;3.50;3.20;;;8.50;99.90;;;;;;5073002;28;20550;-72
2022/12/20 12:01:28;;;;;;;4.23;3.83;;;8.50;99.90;;;;;;5070620;28;20424;-73
2022/12/20 12:04:13;;;;;;;5.00;3.73;;;8.50;99.90;;;;;;5071923;28;20535;-72
2022/12/20 12:06:47;;;;;;;3.37;3.07;;;8.50;99.90;;;;;;5087816;28;20447;-71
2022/12/20 12:09:48;;;;;;;4.60;3.27;;;8.50;99.90;;;;;;5089099;28;20953;-72
2022/12/20 12:12:30;;;;;;;3.77;3.30;;;8.50;99.90;;;;;;5089949;28;20460;-71
2022/12/20 12:15:17;;;;;;;3.90;3.37;;;8.50;99.90;;;;;;5091215;28;20435;-71
2022/12/20 12:17:53;;;;;;;3.37;3.07;;;8.50;99.90;;;;;;5073235;28;20536;-71
2022/12/20 12:20:31;;;;;;;3.67;3.03;;;8.60;99.90;;;;;;5089521;28;20813;-71
2022/12/20 12:23:16;;;;;;;3.33;2.70;;;8.60;99.90;;;;;;5088679;28;20439;-71
2022/12/20 12:25:44;;;;;;;4.60;3.33;;;8.60;99.90;;;;;;5071877;28;20515;-71
2022/12/20 12:28:14;;;;;;;3.53;2.83;;;8.60;99.90;;;;;;5067205;28;20939;-71
2022/12/20 12:30:57;;;;;;;4.33;3.37;;;8.60;99.90;;;;;;5036552;28;20405;-71
2022/12/20 12:33:32;;;;;;;5.40;3.43;;;8.60;99.90;;;;;;5052742;28;20432;-71
2022/12/20 12:36:32;;;;;;;3.70;3.30;;;8.60;99.90;;;;;;5051848;28;20420;-72
2022/12/20 12:39:02;;;;;;;4.80;2.83;;;8.60;99.90;;;;;;5072526;28;20566;-72
2022/12/20 12:41:47;;;;;;;3.40;2.77;;;8.60;99.90;;;;;;5088199;28;20427;-72
2022/12/20 12:44:26;;;;;;;4.63;2.83;;;8.60;99.90;;;;;;5088097;28;20444;-71
2022/12/20 12:47:00;;;;;;;4.60;3.00;;;8.60;99.90;;;;;;5087740;28;20897;-72
2022/12/20 12:49:31;;;;;;;2.87;2.60;;;8.70;99.90;;;;;;5089259;28;20459;-72
2022/12/20 12:52:04;;;;;;;6.17;3.20;;;8.70;99.90;;;;;;5089281;28;20458;-71
2022/12/20 12:54:40;;;;;;;4.93;2.90;;;8.70;99.90;;;;;;5090241;28;20439;-72
2022/12/20 12:57:17;;;;;;;3.60;3.23;;;8.70;99.90;;;;;;5089938;28;20444;-71
2022/12/20 12:59:47;;;;;;;2.80;2.43;;;8.70;99.90;;;;;;5071880;28;20447;-71
2022/12/20 13:02:19;;;;;;;6.40;3.23;;;8.70;99.90;;;;;;5087972;28;20472;-72
2022/12/20 13:04:53;;;;;;;5.60;2.70;;;8.70;99.90;;;;;;5070888;28;20468;-72
2022/12/20 13:07:32;;;;;;;3.70;2.93;;;8.70;99.90;;;;;;5070915;28;20444;-73
2022/12/20 13:10:23;;;;;;;3.07;2.77;;;8.80;99.90;;;;;;5089644;28;20863;-72
2022/12/20 13:12:55;;;;;;;5.33;3.27;;;8.80;99.90;;;;;;5088544;28;20447;-73
2022/12/20 13:15:24;;;;;;;4.03;2.93;;;8.80;99.90;;;;;;5088908;28;20415;-73
2022/12/20 13:17:51;;;;;;;4.20;2.63;;;8.80;99.90;;;;;;5088796;28;20447;-72
2022/12/20 13:20:22;;;;;;;3.90;3.40;;;8.80;99.90;;;;;;5091184;28;20444;-73
2022/12/20 13:23:07;;;;;;;4.90;2.80;;;8.80;99.90;;;;;;5072690;28;20447;-73
2022/12/20 13:25:50;;;;;;;3.77;3.47;;;8.80;99.90;;;;;;5092306;28;20444;-73
2022/12/20 13:28:22;;;;;;;7.27;3.70;;;8.80;99.90;;;;;;5090867;28;20444;-73
2022/12/20 13:31:11;;;;;;;4.13;3.00;;;8.80;99.90;;;;;;5075722;28;20968;-73
2022/12/20 13:33:46;;;;;;;3.63;3.10;;;8.80;99.90;;;;;;5067463;28;20805;-72
2022/12/20 13:36:11;;;;;;;5.33;3.70;;;8.80;99.90;;;;;;5054057;28;20473;-72
2022/12/20 13:39:21;;;;;;;4.63;3.53;;;8.80;99.90;;;;;;5070623;28;20455;-72
2022/12/20 13:41:49;;;;;;;3.60;3.07;;;8.80;99.90;;;;;;5070615;28;20451;-73